Terminal Aerodrome Forecast
Issued by NWS

Current Version | Previous Version | Graphics & Text | Print | Product List | Glossary On
Versions: 1 2 3 4 5 6 7 8 9 10 11 12 13 14 15 16 17 18 19 20 21 22 23 24 25 26 27 28 29 30 31 32 33 34 35
000
FTUS41 KRNK 041733
TAFLWB
TAF
KLWB 041733Z 0418/0518 06003KT P6SM VCTS BKN045CB
     FM050200 00000KT P6SM VCSH BKN080
     FM050700 04002KT 4SM BR SCT001
     FM050900 00000KT 1/4SM FG BKN001
     FM051430 00000KT 5SM BR OVC025
     FM051600 12003KT P6SM OVC025=

USA.gov is the U.S. government's official web portal to all federal, state and local government web resources and services.